createdAt,value
2022-08-09T00:01:18.257Z,25.48
2022-08-09T00:04:05.955Z,25.35
2022-08-09T00:06:33.041Z,25.31
2022-08-09T00:09:00.282Z,25.33
2022-08-09T00:11:55.042Z,25.39
2022-08-09T00:14:17.311Z,25.45
2022-08-09T00:16:49.140Z,25.40
2022-08-09T00:19:18.488Z,25.45
2022-08-09T00:21:55.823Z,25.38
2022-08-09T00:24:23.651Z,25.52
2022-08-09T00:26:50.913Z,25.22
2022-08-09T00:29:39.117Z,25.50
2022-08-09T00:32:04.414Z,25.53
2022-08-09T00:34:32.589Z,25.47
2022-08-09T00:37:00.556Z,25.56
2022-08-09T00:40:12.294Z,25.59
2022-08-09T00:44:10.157Z,25.67
2022-08-09T00:45:03.786Z,25.37
2022-08-09T00:47:42.924Z,25.50
2022-08-09T00:50:14.551Z,25.54
2022-08-09T00:52:41.821Z,25.65
2022-08-09T00:55:08.997Z,25.59
2022-08-09T00:57:43.429Z,25.67
2022-08-09T01:00:21.220Z,25.93
2022-08-09T01:03:04.501Z,25.94
2022-08-09T01:05:46.483Z,25.68
2022-08-09T01:08:27.291Z,25.57
2022-08-09T01:11:15.362Z,25.47
2022-08-09T01:14:00.008Z,25.39
2022-08-09T01:16:35.124Z,25.22
2022-08-09T01:19:17.082Z,24.71
2022-08-09T01:22:29.654Z,25.12
2022-08-09T01:25:24.818Z,25.26
2022-08-09T01:27:53.801Z,25.24
2022-08-09T01:30:35.428Z,25.07
2022-08-09T01:33:06.230Z,25.11
2022-08-09T01:35:51.873Z,25.04
2022-08-09T01:38:23.402Z,25.18
2022-08-09T01:41:05.121Z,25.13
2022-08-09T01:43:41.806Z,25.30
2022-08-09T01:46:34.754Z,25.44
2022-08-09T01:49:10.631Z,25.27
2022-08-09T01:51:44.622Z,25.45
2022-08-09T01:54:27.954Z,25.45
2022-08-09T01:57:04.101Z,25.36
2022-08-09T01:59:32.941Z,25.03
2022-08-09T02:02:20.936Z,24.86
2022-08-09T02:04:50.364Z,25.18
2022-08-09T02:08:39.106Z,25.25
2022-08-09T02:10:12.109Z,25.35
2022-08-09T02:12:40.029Z,25.39
2022-08-09T02:15:11.900Z,25.42
2022-08-09T02:18:00.176Z,25.34
2022-08-09T02:20:45.298Z,25.44
2022-08-09T02:23:39.795Z,25.47
2022-08-09T02:26:09.389Z,25.42
2022-08-09T02:28:59.544Z,25.30
2022-08-09T02:31:33.977Z,25.17
2022-08-09T02:34:13.165Z,25.14
2022-08-09T02:36:54.269Z,25.21
2022-08-09T02:39:39.769Z,24.94
2022-08-09T02:42:16.531Z,24.95
2022-08-09T02:44:57.305Z,24.58
2022-08-09T02:47:24.678Z,24.52
2022-08-09T02:50:01.541Z,24.51
2022-08-09T02:52:38.836Z,24.76
2022-08-09T02:55:21.017Z,24.69
2022-08-09T02:58:00.490Z,24.83
2022-08-09T03:00:39.516Z,24.70
2022-08-09T03:03:21.684Z,24.91
2022-08-09T03:06:06.547Z,24.95
2022-08-09T03:08:35.627Z,25.00
2022-08-09T03:11:03.797Z,24.97
2022-08-09T03:13:43.266Z,24.91
2022-08-09T03:16:21.300Z,24.93
2022-08-09T03:18:48.460Z,24.81
2022-08-09T03:21:25.676Z,24.65
2022-08-09T03:24:04.481Z,24.75
2022-08-09T03:26:33.919Z,24.84
2022-08-09T03:29:01.113Z,24.80
2022-08-09T03:31:42.407Z,24.74
2022-08-09T03:34:12.015Z,24.55
2022-08-09T03:36:40.692Z,24.70
2022-08-09T03:39:15.128Z,24.79
2022-08-09T03:41:45.730Z,24.71
2022-08-09T03:44:15.514Z,24.68
2022-08-09T03:46:42.815Z,24.71
2022-08-09T03:49:11.686Z,24.74
2022-08-09T03:51:56.869Z,24.71
2022-08-09T03:54:31.154Z,24.73
2022-08-09T03:57:18.429Z,24.68
2022-08-09T03:59:54.751Z,24.78
2022-08-09T04:02:27.939Z,24.58
2022-08-09T04:05:06.056Z,24.70
2022-08-09T04:07:53.505Z,24.71
2022-08-09T04:10:29.099Z,24.74
2022-08-09T04:12:58.347Z,24.76
2022-08-09T04:15:42.698Z,24.86
2022-08-09T04:18:17.985Z,24.84
2022-08-09T04:20:46.575Z,24.69
2022-08-09T04:23:17.262Z,24.84
2022-08-09T04:25:51.611Z,24.82
2022-08-09T04:28:33.894Z,24.81
2022-08-09T04:31:09.148Z,24.96
2022-08-09T04:33:52.012Z,25.05
2022-08-09T04:36:31.214Z,25.11
2022-08-09T04:39:00.279Z,25.05
2022-08-09T04:41:32.291Z,25.23
2022-08-09T04:44:06.328Z,25.30
2022-08-09T04:46:59.038Z,24.98
2022-08-09T04:49:47.717Z,25.30
2022-08-09T04:52:12.050Z,25.34
2022-08-09T04:54:45.462Z,25.33
2022-08-09T04:57:12.325Z,25.40
2022-08-09T04:59:38.931Z,25.36
2022-08-09T05:02:06.441Z,25.34
2022-08-09T05:04:33.120Z,25.44
2022-08-09T05:06:59.749Z,25.68
2022-08-09T05:09:42.237Z,25.77
2022-08-09T05:12:13.145Z,25.71
2022-08-09T05:14:42.610Z,25.63
2022-08-09T05:18:37.558Z,25.68
2022-08-09T05:19:57.111Z,25.86
2022-08-09T05:23:50.409Z,27.19
2022-08-09T05:25:12.433Z,29.52
2022-08-09T05:27:46.483Z,31.54
2022-08-09T05:30:17.612Z,33.43
2022-08-09T05:32:51.114Z,34.69
2022-08-09T05:35:22.005Z,36.05
2022-08-09T05:37:50.971Z,37.44
2022-08-09T05:40:18.815Z,38.41
2022-08-09T05:42:46.350Z,39.14
2022-08-09T05:45:14.402Z,40.05
2022-08-09T05:47:53.039Z,40.87
2022-08-09T05:50:50.775Z,41.46
2022-08-09T05:53:31.776Z,42.41
2022-08-09T05:55:58.469Z,43.01
2022-08-09T05:58:25.307Z,43.37
2022-08-09T06:00:53.259Z,43.97
2022-08-09T06:03:20.552Z,44.13
2022-08-09T06:05:50.570Z,44.39
2022-08-09T06:08:31.426Z,43.83
2022-08-09T06:10:59.227Z,44.37
2022-08-09T06:13:28.313Z,45.34
2022-08-09T06:15:55.497Z,45.23
2022-08-09T06:18:25.315Z,45.61
2022-08-09T06:20:57.125Z,45.57
2022-08-09T06:23:57.715Z,46.01
2022-08-09T06:26:20.269Z,45.81
2022-08-09T06:28:47.327Z,46.02
2022-08-09T06:31:14.091Z,45.75
2022-08-09T06:33:42.169Z,46.07
2022-08-09T06:36:19.497Z,46.52
2022-08-09T06:38:54.285Z,47.20
2022-08-09T06:41:24.854Z,47.69
2022-08-09T06:44:14.280Z,47.81
2022-08-09T06:46:45.381Z,48.35
2022-08-09T06:49:12.772Z,46.98
2022-08-09T06:51:42.925Z,47.24
2022-08-09T06:54:14.876Z,47.38
2022-08-09T06:56:45.428Z,47.92
2022-08-09T07:00:51.244Z,48.38
2022-08-09T07:02:04.522Z,47.89
2022-08-09T07:04:31.640Z,47.55
2022-08-09T07:07:00.578Z,48.31
2022-08-09T07:09:54.931Z,48.69
2022-08-09T07:12:18.324Z,48.73
2022-08-09T07:14:51.104Z,48.56
2022-08-09T07:17:19.385Z,48.33
2022-08-09T07:19:48.101Z,48.26
2022-08-09T07:22:18.002Z,48.44
2022-08-09T07:24:49.543Z,48.11
2022-08-09T07:27:27.379Z,47.64
2022-08-09T07:30:02.052Z,47.09
2022-08-09T07:32:32.545Z,47.37
2022-08-09T07:35:02.650Z,47.05
2022-08-09T07:37:29.697Z,46.65
2022-08-09T07:39:56.618Z,46.16
2022-08-09T07:42:32.437Z,45.69
2022-08-09T07:45:02.601Z,46.22
2022-08-09T07:47:39.476Z,46.67
2022-08-09T07:50:16.804Z,46.08
2022-08-09T07:52:43.689Z,46.40
2022-08-09T07:55:14.786Z,46.96
2022-08-09T07:57:46.787Z,46.67
2022-08-09T08:00:20.485Z,46.59
2022-08-09T08:03:08.040Z,46.71
2022-08-09T08:05:39.085Z,47.27
2022-08-09T08:09:00.938Z,47.93
2022-08-09T08:12:09.058Z,47.35
2022-08-09T08:13:57.245Z,45.63
2022-08-09T08:16:32.049Z,45.90
2022-08-09T08:19:02.562Z,45.31
2022-08-09T08:21:30.453Z,45.10
2022-08-09T08:23:57.090Z,45.42
2022-08-09T08:26:54.799Z,44.56
2022-08-09T08:29:15.345Z,44.78
2022-08-09T08:32:04.331Z,43.98
2022-08-09T08:34:34.552Z,44.59
2022-08-09T08:37:03.751Z,43.89
2022-08-09T08:39:38.229Z,43.42
2022-08-09T08:42:10.291Z,43.96
2022-08-09T08:44:37.095Z,43.53
2022-08-09T08:47:12.633Z,42.78
2022-08-09T08:49:46.597Z,42.17
2022-08-09T08:52:52.776Z,41.66
2022-08-09T08:55:05.750Z,41.23
2022-08-09T08:57:35.214Z,39.49
2022-08-09T09:00:12.649Z,39.67
2022-08-09T09:02:49.910Z,39.36
2022-08-09T09:05:57.490Z,39.06
2022-08-09T09:08:29.258Z,39.32
2022-08-09T09:11:01.007Z,38.87
2022-08-09T09:13:41.670Z,39.55
2022-08-09T09:16:16.129Z,39.59
2022-08-09T09:18:48.130Z,39.54
2022-08-09T09:21:16.186Z,39.70
2022-08-09T09:23:58.282Z,38.92
2022-08-09T09:26:31.386Z,38.67
2022-08-09T09:29:03.395Z,38.86
2022-08-09T09:32:04.600Z,38.38
2022-08-09T09:34:23.380Z,38.48
2022-08-09T09:36:54.181Z,38.68
2022-08-09T09:39:25.604Z,39.44
2022-08-09T09:42:26.125Z,39.60
2022-08-09T09:44:58.008Z,39.29
2022-08-09T09:47:28.547Z,39.41
2022-08-09T09:50:15.187Z,38.27
2022-08-09T09:52:56.222Z,37.55
2022-08-09T09:55:32.024Z,37.59
2022-08-09T09:58:16.498Z,36.90
2022-08-09T10:00:55.778Z,37.19
2022-08-09T10:04:00.731Z,38.31
2022-08-09T10:06:42.764Z,38.27
2022-08-09T10:09:22.504Z,38.90
2022-08-09T10:12:14.315Z,38.39
2022-08-09T10:14:49.339Z,38.48
2022-08-09T10:17:39.546Z,38.29
2022-08-09T10:20:35.586Z,38.19
2022-08-09T10:23:20.509Z,37.61
2022-08-09T10:26:04.288Z,38.27
2022-08-09T10:28:36.098Z,37.47
2022-08-09T10:34:08.676Z,36.96
2022-08-09T10:36:38.302Z,36.64
2022-08-09T10:39:05.948Z,36.33
2022-08-09T10:41:42.433Z,36.71
2022-08-09T10:44:09.979Z,36.77
2022-08-09T10:47:01.172Z,37.60
2022-08-09T10:49:49.750Z,38.10
2022-08-09T10:52:43.026Z,37.50
2022-08-09T10:55:25.728Z,36.53
2022-08-09T10:57:55.359Z,37.23
2022-08-09T11:00:28.797Z,37.26
2022-08-09T11:03:14.870Z,37.23
2022-08-09T11:06:15.402Z,38.16
2022-08-09T11:08:47.851Z,37.65
2022-08-09T11:11:16.938Z,37.19
2022-08-09T11:13:51.218Z,37.15
2022-08-09T11:16:39.034Z,36.83
2022-08-09T11:19:09.394Z,37.27
2022-08-09T11:21:57.192Z,36.49
2022-08-09T11:24:57.598Z,36.90
2022-08-09T11:28:09.288Z,37.96
2022-08-09T11:30:32.991Z,38.85
2022-08-09T11:33:19.058Z,38.63
2022-08-09T11:35:50.196Z,38.27
2022-08-09T11:38:30.998Z,38.17
2022-08-09T11:41:38.080Z,38.25
2022-08-09T11:44:08.194Z,39.05
2022-08-09T11:46:54.812Z,39.64
2022-08-09T11:50:55.586Z,40.53
2022-08-09T11:53:21.117Z,40.26
2022-08-09T11:55:52.201Z,39.59
2022-08-09T11:58:30.121Z,38.51
2022-08-09T12:01:03.473Z,38.43
2022-08-09T12:03:57.369Z,38.10
2022-08-09T12:06:26.647Z,38.17
2022-08-09T12:08:55.855Z,37.67
2022-08-09T12:11:25.520Z,38.11
2022-08-09T12:14:10.832Z,38.74
2022-08-09T12:16:44.366Z,39.84
2022-08-09T12:19:13.630Z,40.38
2022-08-09T12:21:48.578Z,40.65
2022-08-09T12:24:24.089Z,38.55
2022-08-09T12:29:13.569Z,39.20
2022-08-09T12:30:04.308Z,39.20
2022-08-09T12:32:40.666Z,39.67
2022-08-09T12:35:12.357Z,39.78
2022-08-09T12:37:50.141Z,39.59
2022-08-09T12:40:18.580Z,38.38
2022-08-09T12:42:50.494Z,38.87
2022-08-09T12:45:33.199Z,38.73
2022-08-09T12:48:03.243Z,38.67
2022-08-09T12:50:30.737Z,38.12
2022-08-09T12:53:17.456Z,38.03
2022-08-09T12:56:14.497Z,39.07
2022-08-09T12:58:31.692Z,39.77
2022-08-09T13:00:58.902Z,39.44
2022-08-09T13:03:53.257Z,39.08
2022-08-09T13:06:34.325Z,39.33
2022-08-09T13:09:12.565Z,38.93
2022-08-09T13:11:42.760Z,38.42
2022-08-09T13:14:42.411Z,38.25
2022-08-09T13:17:43.701Z,37.38
2022-08-09T13:20:14.042Z,37.57
2022-08-09T13:23:05.564Z,37.51
2022-08-09T13:25:42.465Z,37.63
2022-08-09T13:28:18.819Z,37.92
2022-08-09T13:32:17.773Z,38.02
2022-08-09T13:33:58.915Z,37.97
2022-08-09T13:36:41.321Z,38.29
2022-08-09T13:39:34.157Z,39.32
2022-08-09T13:42:12.614Z,38.64
2022-08-09T13:44:43.281Z,38.86
2022-08-09T13:47:31.106Z,37.60
2022-08-09T13:50:02.130Z,37.02
2022-08-09T13:52:30.053Z,37.30
2022-08-09T13:55:00.495Z,37.23
2022-08-09T13:57:37.479Z,37.31
2022-08-09T14:00:13.146Z,37.34
2022-08-09T14:03:04.237Z,37.55
2022-08-09T14:05:58.863Z,37.13
2022-08-09T14:08:19.506Z,37.55
2022-08-09T14:10:52.675Z,37.49
2022-08-09T14:14:15.945Z,38.24
2022-08-09T14:16:12.452Z,38.23
2022-08-09T14:18:43.298Z,38.10
2022-08-09T14:21:17.478Z,38.62
2022-08-09T14:23:54.562Z,38.47
2022-08-09T14:26:33.865Z,38.97
2022-08-09T14:29:03.653Z,39.14
2022-08-09T14:31:50.260Z,39.50
2022-08-09T14:37:08.548Z,38.75
2022-08-09T14:39:46.133Z,39.08
2022-08-09T14:42:30.156Z,39.29
2022-08-09T14:46:40.014Z,37.40
2022-08-09T14:47:58.267Z,37.47
2022-08-09T14:50:28.612Z,37.20
2022-08-09T14:52:56.039Z,36.69
2022-08-09T14:55:22.620Z,36.81
2022-08-09T14:57:49.765Z,36.07
2022-08-09T15:00:17.229Z,36.77
2022-08-09T15:02:47.149Z,37.34
2022-08-09T15:05:16.191Z,37.32
2022-08-09T15:07:45.410Z,37.07
2022-08-09T15:10:24.891Z,37.11
2022-08-09T15:12:53.660Z,37.89
2022-08-09T15:15:21.237Z,38.03
2022-08-09T15:17:52.401Z,38.53
2022-08-09T15:21:57.309Z,39.11
2022-08-09T15:24:01.002Z,38.68
2022-08-09T15:25:58.100Z,37.62
2022-08-09T15:28:27.390Z,36.66
2022-08-09T15:31:07.462Z,36.75
2022-08-09T15:34:17.094Z,35.94
2022-08-09T15:36:29.479Z,35.77
2022-08-09T15:38:59.841Z,36.45
2022-08-09T15:41:32.290Z,36.12
2022-08-09T15:44:01.831Z,35.89
2022-08-09T15:46:33.767Z,35.45
2022-08-09T15:49:22.975Z,35.52
2022-08-09T15:52:04.014Z,35.44
2022-08-09T15:54:52.626Z,35.75
2022-08-09T15:57:34.179Z,35.75
2022-08-09T16:00:14.860Z,35.57
2022-08-09T16:02:48.236Z,35.63
2022-08-09T16:05:23.772Z,35.99
2022-08-09T16:07:50.842Z,35.71
2022-08-09T16:10:56.181Z,35.93
2022-08-09T16:13:20.994Z,35.89
2022-08-09T16:16:11.054Z,35.50
2022-08-09T16:18:44.987Z,35.47
2022-08-09T16:21:17.486Z,35.73
2022-08-09T16:23:54.917Z,35.12
2022-08-09T16:26:34.871Z,34.98
2022-08-09T16:29:14.767Z,35.28
2022-08-09T16:32:19.527Z,35.02
2022-08-09T16:34:54.906Z,35.05
2022-08-09T16:37:18.345Z,35.61
2022-08-09T16:39:54.507Z,35.24
2022-08-09T16:42:32.519Z,34.54
2022-08-09T16:44:59.096Z,34.95
2022-08-09T16:48:40.193Z,35.30
2022-08-09T16:50:29.687Z,35.20
2022-08-09T16:52:59.236Z,35.14
2022-08-09T16:55:25.783Z,34.87
2022-08-09T16:58:10.217Z,35.17
2022-08-09T17:00:38.810Z,34.86
2022-08-09T17:03:20.888Z,34.48
2022-08-09T17:06:06.951Z,34.68
2022-08-09T17:08:45.077Z,34.83
2022-08-09T17:11:24.610Z,34.66
2022-08-09T17:14:01.717Z,34.09
2022-08-09T17:16:28.563Z,34.49
2022-08-09T17:18:55.331Z,34.44
2022-08-09T17:21:21.982Z,34.50
2022-08-09T17:24:27.274Z,35.02
2022-08-09T17:26:38.061Z,34.90
2022-08-09T17:29:05.224Z,34.56
2022-08-09T17:31:38.803Z,34.26
2022-08-09T17:34:20.294Z,33.99
2022-08-09T17:36:54.151Z,34.25
2022-08-09T17:39:24.847Z,34.45
2022-08-09T17:41:51.723Z,34.29
2022-08-09T17:44:38.981Z,34.20
2022-08-09T17:47:05.872Z,34.16
2022-08-09T17:49:51.315Z,34.35
2022-08-09T17:52:22.702Z,34.26
2022-08-09T17:54:49.745Z,33.95
2022-08-09T17:57:20.572Z,33.92
2022-08-09T18:00:05.633Z,34.01
2022-08-09T18:02:39.004Z,34.08
2022-08-09T18:05:06.628Z,33.53
2022-08-09T18:07:40.093Z,33.57
2022-08-09T18:10:15.200Z,33.39
2022-08-09T18:13:43.520Z,33.00
2022-08-09T18:16:08.122Z,32.98
2022-08-09T18:18:25.184Z,33.22
2022-08-09T18:21:11.027Z,33.39
2022-08-09T18:24:12.000Z,33.23
2022-08-09T18:26:26.297Z,33.26
2022-08-09T18:30:42.770Z,33.43
2022-08-09T18:31:51.283Z,33.40
2022-08-09T18:34:24.241Z,33.53
2022-08-09T18:36:53.330Z,33.40
2022-08-09T18:39:22.335Z,33.48
2022-08-09T18:41:52.168Z,33.68
2022-08-09T18:44:25.459Z,33.96
2022-08-09T18:47:06.238Z,34.03
2022-08-09T18:49:43.204Z,33.99
2022-08-09T18:52:12.191Z,33.82
2022-08-09T18:54:49.796Z,34.03
2022-08-09T18:57:19.752Z,33.93
2022-08-09T18:59:54.409Z,33.86
2022-08-09T19:02:30.887Z,33.70
2022-08-09T19:05:14.872Z,33.52
2022-08-09T19:08:03.652Z,33.36
2022-08-09T19:10:37.802Z,33.29
2022-08-09T19:13:20.920Z,33.16
2022-08-09T19:15:52.798Z,32.98
2022-08-09T19:18:33.003Z,32.83
2022-08-09T19:21:02.551Z,32.91
2022-08-09T19:24:38.054Z,33.01
2022-08-09T19:26:16.195Z,32.93
2022-08-09T19:28:48.593Z,32.87
2022-08-09T19:31:16.821Z,32.55
2022-08-09T19:33:43.606Z,32.50
2022-08-09T19:36:11.784Z,32.60
2022-08-09T19:38:40.336Z,32.51
2022-08-09T19:41:06.936Z,32.25
2022-08-09T19:44:00.736Z,32.26
2022-08-09T19:46:34.260Z,32.21
2022-08-09T19:50:04.574Z,32.28
2022-08-09T19:51:55.467Z,32.29
2022-08-09T19:54:27.105Z,32.27
2022-08-09T19:56:55.019Z,32.11
2022-08-09T19:59:57.677Z,32.16
2022-08-09T20:03:23.975Z,32.24
2022-08-09T20:04:59.002Z,32.22
2022-08-09T20:07:26.157Z,32.11
2022-08-09T20:10:17.620Z,32.05
2022-08-09T20:12:49.025Z,31.99
2022-08-09T20:16:37.864Z,31.99
2022-08-09T20:18:03.319Z,31.81
2022-08-09T20:20:34.894Z,31.58
2022-08-09T20:23:04.376Z,31.48
2022-08-09T20:25:51.292Z,31.45
2022-08-09T20:28:34.359Z,31.37
2022-08-09T20:31:05.707Z,31.31
2022-08-09T20:33:39.054Z,31.15
2022-08-09T20:36:08.643Z,30.90
2022-08-09T20:38:52.750Z,30.83
2022-08-09T20:41:29.237Z,30.75
2022-08-09T20:44:01.243Z,30.60
2022-08-09T20:46:42.649Z,30.40
2022-08-09T20:49:12.860Z,30.26
2022-08-09T20:51:41.534Z,30.33
2022-08-09T20:54:12.474Z,29.83
2022-08-09T20:56:49.503Z,29.53
2022-08-09T20:59:24.842Z,28.72
2022-08-09T21:02:08.180Z,28.38
2022-08-09T21:05:51.486Z,28.45
2022-08-09T21:07:24.880Z,28.85
2022-08-09T21:10:05.514Z,28.84
2022-08-09T21:15:23.702Z,28.46
2022-08-09T21:18:11.901Z,28.28
2022-08-09T21:20:53.840Z,28.18
2022-08-09T21:23:21.466Z,28.33
2022-08-09T21:25:57.206Z,27.76
2022-08-09T21:28:35.133Z,27.64
2022-08-09T21:31:16.268Z,27.57
2022-08-09T21:33:53.006Z,27.79
2022-08-09T21:36:25.773Z,27.57
2022-08-09T21:38:57.590Z,27.08
2022-08-09T21:42:04.189Z,27.65
2022-08-09T21:44:33.250Z,27.34
2022-08-09T21:47:07.785Z,27.19
2022-08-09T21:49:39.700Z,27.25
2022-08-09T21:52:14.914Z,27.54
2022-08-09T21:55:02.877Z,27.46
2022-08-09T21:57:37.585Z,27.48
2022-08-09T22:00:25.993Z,27.34
2022-08-09T22:02:58.098Z,27.40
2022-08-09T22:05:33.649Z,27.36
2022-08-09T22:08:06.331Z,27.48
2022-08-09T22:10:33.171Z,27.43
2022-08-09T22:13:00.791Z,27.07
2022-08-09T22:15:37.088Z,27.34
2022-08-09T22:18:04.353Z,27.38
2022-08-09T22:20:39.741Z,26.83
2022-08-09T22:23:10.686Z,26.92
2022-08-09T22:26:07.034Z,27.04
2022-08-09T22:28:32.471Z,26.79
2022-08-09T22:30:59.930Z,26.71
2022-08-09T22:33:37.586Z,26.66
2022-08-09T22:36:10.201Z,26.56
2022-08-09T22:38:37.376Z,26.39
2022-08-09T22:41:04.319Z,27.10
2022-08-09T22:44:01.665Z,26.88
2022-08-09T22:48:14.265Z,26.65
2022-08-09T22:49:09.825Z,27.21
2022-08-09T22:51:39.477Z,26.87
2022-08-09T22:54:10.935Z,26.98
2022-08-09T22:56:40.410Z,27.13
2022-08-09T22:59:56.716Z,27.18
2022-08-09T23:01:55.587Z,27.02
2022-08-09T23:04:22.695Z,27.28
2022-08-09T23:07:14.169Z,27.36
2022-08-09T23:09:42.981Z,26.94
2022-08-09T23:12:10.925Z,26.86
2022-08-09T23:14:41.883Z,27.06
2022-08-09T23:17:10.106Z,26.84
2022-08-09T23:20:01.119Z,26.89
2022-08-09T23:22:23.720Z,26.91
2022-08-09T23:24:50.282Z,26.75
2022-08-09T23:27:16.811Z,26.67
2022-08-09T23:29:43.535Z,26.75
2022-08-09T23:32:10.189Z,26.52
2022-08-09T23:34:37.650Z,26.70
2022-08-09T23:37:04.669Z,26.74
2022-08-09T23:39:32.115Z,26.20
2022-08-09T23:41:58.872Z,26.17
2022-08-09T23:44:25.387Z,26.38
2022-08-09T23:46:55.907Z,26.32
2022-08-09T23:49:25.729Z,26.41
2022-08-09T23:51:53.370Z,26.68
2022-08-09T23:54:20.790Z,26.83
2022-08-09T23:56:53.647Z,27.09
2022-08-09T23:59:23.632Z,26.81
